sensor_id;sensor_type;location;lat;lon;timestamp;temperature;humidity
49379;DHT22;35254;47.990;-1.608;2023-04-24T00:01:40;16.70;62.60
49379;DHT22;35254;47.990;-1.608;2023-04-24T00:04:06;16.70;62.60
49379;DHT22;35254;47.990;-1.608;2023-04-24T00:06:32;16.70;62.70
49379;DHT22;35254;47.990;-1.608;2023-04-24T00:09:02;16.70;62.80
49379;DHT22;35254;47.990;-1.608;2023-04-24T00:11:28;16.70;62.90
49379;DHT22;35254;47.990;-1.608;2023-04-24T00:13:54;16.70;62.90
49379;DHT22;35254;47.990;-1.608;2023-04-24T00:16:19;16.70;62.90
49379;DHT22;35254;47.990;-1.608;2023-04-24T00:18:45;16.70;62.90
49379;DHT22;35254;47.990;-1.608;2023-04-24T00:21:13;16.70;62.90
49379;DHT22;35254;47.990;-1.608;2023-04-24T00:23:39;16.70;62.90
49379;DHT22;35254;47.990;-1.608;2023-04-24T00:26:04;16.70;63.00
49379;DHT22;35254;47.990;-1.608;2023-04-24T00:28:30;16.70;63.00
49379;DHT22;35254;47.990;-1.608;2023-04-24T00:30:56;16.70;63.10
49379;DHT22;35254;47.990;-1.608;2023-04-24T00:33:21;16.70;63.00
49379;DHT22;35254;47.990;-1.608;2023-04-24T00:35:47;16.70;62.90
49379;DHT22;35254;47.990;-1.608;2023-04-24T00:38:13;16.70;63.00
49379;DHT22;35254;47.990;-1.608;2023-04-24T00:40:38;16.70;63.00
49379;DHT22;35254;47.990;-1.608;2023-04-24T00:43:04;16.70;63.00
49379;DHT22;35254;47.990;-1.608;2023-04-24T00:45:30;16.70;63.10
49379;DHT22;35254;47.990;-1.608;2023-04-24T00:47:56;16.70;63.00
49379;DHT22;35254;47.990;-1.608;2023-04-24T00:50:24;16.70;62.90
49379;DHT22;35254;47.990;-1.608;2023-04-24T00:52:50;16.70;63.00
49379;DHT22;35254;47.990;-1.608;2023-04-24T00:55:16;16.70;63.00
49379;DHT22;35254;47.990;-1.608;2023-04-24T00:57:43;16.70;63.00
49379;DHT22;35254;47.990;-1.608;2023-04-24T01:00:09;16.70;63.00
49379;DHT22;35254;47.990;-1.608;2023-04-24T01:02:41;16.70;63.00
49379;DHT22;35254;47.990;-1.608;2023-04-24T01:05:12;16.70;63.10
49379;DHT22;35254;47.990;-1.608;2023-04-24T01:07:39;16.70;63.00
49379;DHT22;35254;47.990;-1.608;2023-04-24T01:10:07;16.70;63.00
49379;DHT22;35254;47.990;-1.608;2023-04-24T01:12:33;16.70;63.10
49379;DHT22;35254;47.990;-1.608;2023-04-24T01:14:59;16.60;63.10
49379;DHT22;35254;47.990;-1.608;2023-04-24T01:17:25;16.60;63.00
49379;DHT22;35254;47.990;-1.608;2023-04-24T01:19:50;16.70;63.00
49379;DHT22;35254;47.990;-1.608;2023-04-24T01:22:19;16.70;63.00
49379;DHT22;35254;47.990;-1.608;2023-04-24T01:24:46;16.70;63.10
49379;DHT22;35254;47.990;-1.608;2023-04-24T01:27:12;16.70;63.10
49379;DHT22;35254;47.990;-1.608;2023-04-24T01:29:38;16.60;63.00
49379;DHT22;35254;47.990;-1.608;2023-04-24T01:32:04;16.70;63.10
49379;DHT22;35254;47.990;-1.608;2023-04-24T01:34:30;16.60;63.10
49379;DHT22;35254;47.990;-1.608;2023-04-24T01:36:56;16.70;63.10
49379;DHT22;35254;47.990;-1.608;2023-04-24T01:39:22;16.60;63.10
49379;DHT22;35254;47.990;-1.608;2023-04-24T01:41:51;16.60;63.10
49379;DHT22;35254;47.990;-1.608;2023-04-24T01:44:17;16.60;63.10
49379;DHT22;35254;47.990;-1.608;2023-04-24T01:46:44;16.60;63.10
49379;DHT22;35254;47.990;-1.608;2023-04-24T01:49:10;16.60;63.10
49379;DHT22;35254;47.990;-1.608;2023-04-24T01:51:36;16.60;63.10
49379;DHT22;35254;47.990;-1.608;2023-04-24T01:54:01;16.60;63.10
49379;DHT22;35254;47.990;-1.608;2023-04-24T01:56:29;16.60;63.00
49379;DHT22;35254;47.990;-1.608;2023-04-24T01:58:56;16.60;63.10
49379;DHT22;35254;47.990;-1.608;2023-04-24T02:01:24;16.60;63.10
49379;DHT22;35254;47.990;-1.608;2023-04-24T02:03:50;16.60;63.10
49379;DHT22;35254;47.990;-1.608;2023-04-24T02:06:15;16.60;63.10
49379;DHT22;35254;47.990;-1.608;2023-04-24T02:08:41;16.60;63.00
49379;DHT22;35254;47.990;-1.608;2023-04-24T02:11:09;16.60;63.00
49379;DHT22;35254;47.990;-1.608;2023-04-24T02:13:35;16.60;63.00
49379;DHT22;35254;47.990;-1.608;2023-04-24T02:16:00;16.60;63.00
49379;DHT22;35254;47.990;-1.608;2023-04-24T02:18:26;16.60;62.90
49379;DHT22;35254;47.990;-1.608;2023-04-24T02:20:53;16.60;63.00
49379;DHT22;35254;47.990;-1.608;2023-04-24T02:23:19;16.50;63.10
49379;DHT22;35254;47.990;-1.608;2023-04-24T02:25:44;16.60;63.10
49379;DHT22;35254;47.990;-1.608;2023-04-24T02:28:11;16.60;63.10
49379;DHT22;35254;47.990;-1.608;2023-04-24T02:30:36;16.60;63.00
49379;DHT22;35254;47.990;-1.608;2023-04-24T02:33:02;16.60;63.10
49379;DHT22;35254;47.990;-1.608;2023-04-24T02:35:28;16.50;63.10
49379;DHT22;35254;47.990;-1.608;2023-04-24T02:37:54;16.50;63.10
49379;DHT22;35254;47.990;-1.608;2023-04-24T02:40:20;16.50;63.00
49379;DHT22;35254;47.990;-1.608;2023-04-24T02:42:45;16.50;63.10
49379;DHT22;35254;47.990;-1.608;2023-04-24T02:45:11;16.50;63.10
49379;DHT22;35254;47.990;-1.608;2023-04-24T02:47:36;16.60;63.10
49379;DHT22;35254;47.990;-1.608;2023-04-24T02:50:02;16.50;63.10
49379;DHT22;35254;47.990;-1.608;2023-04-24T02:52:28;16.50;63.10
49379;DHT22;35254;47.990;-1.608;2023-04-24T02:54:54;16.50;63.20
49379;DHT22;35254;47.990;-1.608;2023-04-24T02:57:19;16.50;63.20
49379;DHT22;35254;47.990;-1.608;2023-04-24T02:59:45;16.50;63.20
49379;DHT22;35254;47.990;-1.608;2023-04-24T03:02:11;16.50;63.20
49379;DHT22;35254;47.990;-1.608;2023-04-24T03:04:36;16.50;63.20
49379;DHT22;35254;47.990;-1.608;2023-04-24T03:07:02;16.50;63.10
49379;DHT22;35254;47.990;-1.608;2023-04-24T03:09:27;16.50;63.20
49379;DHT22;35254;47.990;-1.608;2023-04-24T03:11:53;16.50;63.20
49379;DHT22;35254;47.990;-1.608;2023-04-24T03:14:19;16.50;63.20
49379;DHT22;35254;47.990;-1.608;2023-04-24T03:16:44;16.50;63.20
49379;DHT22;35254;47.990;-1.608;2023-04-24T03:19:10;16.40;63.10
49379;DHT22;35254;47.990;-1.608;2023-04-24T03:21:36;16.50;63.40
49379;DHT22;35254;47.990;-1.608;2023-04-24T03:24:08;16.50;63.20
49379;DHT22;35254;47.990;-1.608;2023-04-24T03:26:35;16.50;63.20
49379;DHT22;35254;47.990;-1.608;2023-04-24T03:29:01;16.50;63.20
49379;DHT22;35254;47.990;-1.608;2023-04-24T03:31:26;16.40;63.30
49379;DHT22;35254;47.990;-1.608;2023-04-24T03:33:52;16.40;63.30
49379;DHT22;35254;47.990;-1.608;2023-04-24T03:36:18;16.50;63.40
49379;DHT22;35254;47.990;-1.608;2023-04-24T03:38:44;16.40;63.40
49379;DHT22;35254;47.990;-1.608;2023-04-24T03:41:11;16.40;63.40
49379;DHT22;35254;47.990;-1.608;2023-04-24T03:43:37;16.40;63.50
49379;DHT22;35254;47.990;-1.608;2023-04-24T03:46:03;16.40;63.50
49379;DHT22;35254;47.990;-1.608;2023-04-24T03:48:29;16.40;63.40
49379;DHT22;35254;47.990;-1.608;2023-04-24T03:50:55;16.40;63.40
49379;DHT22;35254;47.990;-1.608;2023-04-24T03:53:20;16.40;63.40
49379;DHT22;35254;47.990;-1.608;2023-04-24T03:55:46;16.40;63.50
49379;DHT22;35254;47.990;-1.608;2023-04-24T03:58:12;16.40;63.50
49379;DHT22;35254;47.990;-1.608;2023-04-24T04:00:40;16.40;63.50
49379;DHT22;35254;47.990;-1.608;2023-04-24T04:03:06;16.40;63.40
49379;DHT22;35254;47.990;-1.608;2023-04-24T04:05:31;16.40;63.30
49379;DHT22;35254;47.990;-1.608;2023-04-24T04:07:57;16.40;63.30
49379;DHT22;35254;47.990;-1.608;2023-04-24T04:10:22;16.40;63.50
49379;DHT22;35254;47.990;-1.608;2023-04-24T04:12:48;16.40;63.40
49379;DHT22;35254;47.990;-1.608;2023-04-24T04:15:14;16.40;63.40
49379;DHT22;35254;47.990;-1.608;2023-04-24T04:17:39;16.40;63.30
49379;DHT22;35254;47.990;-1.608;2023-04-24T04:20:06;16.40;63.30
49379;DHT22;35254;47.990;-1.608;2023-04-24T04:22:35;16.40;63.40
49379;DHT22;35254;47.990;-1.608;2023-04-24T04:25:01;16.40;63.30
49379;DHT22;35254;47.990;-1.608;2023-04-24T04:27:26;16.40;63.20
49379;DHT22;35254;47.990;-1.608;2023-04-24T04:29:53;16.40;63.20
49379;DHT22;35254;47.990;-1.608;2023-04-24T04:32:21;16.50;63.30
49379;DHT22;35254;47.990;-1.608;2023-04-24T04:34:47;16.40;63.30
49379;DHT22;35254;47.990;-1.608;2023-04-24T04:37:14;16.40;63.30
49379;DHT22;35254;47.990;-1.608;2023-04-24T04:39:40;16.40;63.40
49379;DHT22;35254;47.990;-1.608;2023-04-24T04:42:06;16.40;63.50
49379;DHT22;35254;47.990;-1.608;2023-04-24T04:44:32;16.40;63.50
49379;DHT22;35254;47.990;-1.608;2023-04-24T04:46:58;16.40;63.40
49379;DHT22;35254;47.990;-1.608;2023-04-24T04:49:24;16.40;63.50
49379;DHT22;35254;47.990;-1.608;2023-04-24T04:51:50;16.40;63.40
49379;DHT22;35254;47.990;-1.608;2023-04-24T04:54:16;16.40;63.30
49379;DHT22;35254;47.990;-1.608;2023-04-24T04:56:42;16.40;63.30
49379;DHT22;35254;47.990;-1.608;2023-04-24T04:59:07;16.40;63.30
49379;DHT22;35254;47.990;-1.608;2023-04-24T05:01:33;16.40;63.30
49379;DHT22;35254;47.990;-1.608;2023-04-24T05:03:58;16.40;63.30
49379;DHT22;35254;47.990;-1.608;2023-04-24T05:06:24;16.40;63.30
49379;DHT22;35254;47.990;-1.608;2023-04-24T05:08:51;16.40;63.50
49379;DHT22;35254;47.990;-1.608;2023-04-24T05:11:21;16.40;63.30
49379;DHT22;35254;47.990;-1.608;2023-04-24T05:13:46;16.40;63.30
49379;DHT22;35254;47.990;-1.608;2023-04-24T05:16:12;16.40;63.40
49379;DHT22;35254;47.990;-1.608;2023-04-24T05:18:38;16.40;63.40
49379;DHT22;35254;47.990;-1.608;2023-04-24T05:21:03;16.40;63.40
49379;DHT22;35254;47.990;-1.608;2023-04-24T05:23:29;16.40;63.50
49379;DHT22;35254;47.990;-1.608;2023-04-24T05:25:55;16.30;63.50
49379;DHT22;35254;47.990;-1.608;2023-04-24T05:28:20;16.40;63.60
49379;DHT22;35254;47.990;-1.608;2023-04-24T05:30:46;16.30;63.60
49379;DHT22;35254;47.990;-1.608;2023-04-24T05:33:12;16.40;63.60
49379;DHT22;35254;47.990;-1.608;2023-04-24T05:35:40;16.40;63.70
49379;DHT22;35254;47.990;-1.608;2023-04-24T05:38:11;16.40;63.70
49379;DHT22;35254;47.990;-1.608;2023-04-24T05:40:36;16.40;63.70
49379;DHT22;35254;47.990;-1.608;2023-04-24T05:43:02;16.40;63.80
49379;DHT22;35254;47.990;-1.608;2023-04-24T05:45:28;16.40;63.70
49379;DHT22;35254;47.990;-1.608;2023-04-24T05:47:53;16.30;63.70
49379;DHT22;35254;47.990;-1.608;2023-04-24T05:50:19;16.40;63.70
49379;DHT22;35254;47.990;-1.608;2023-04-24T05:52:45;16.40;63.60
49379;DHT22;35254;47.990;-1.608;2023-04-24T05:55:10;16.40;63.60
49379;DHT22;35254;47.990;-1.608;2023-04-24T05:57:36;16.30;63.60
49379;DHT22;35254;47.990;-1.608;2023-04-24T06:00:03;16.30;63.70
49379;DHT22;35254;47.990;-1.608;2023-04-24T06:02:29;16.30;63.60
49379;DHT22;35254;47.990;-1.608;2023-04-24T06:05:00;16.30;63.60
49379;DHT22;35254;47.990;-1.608;2023-04-24T06:07:26;16.40;63.50
49379;DHT22;35254;47.990;-1.608;2023-04-24T06:09:52;16.30;63.60
49379;DHT22;35254;47.990;-1.608;2023-04-24T06:12:18;16.40;63.60
49379;DHT22;35254;47.990;-1.608;2023-04-24T06:14:43;16.30;63.60
49379;DHT22;35254;47.990;-1.608;2023-04-24T06:17:09;16.30;63.50
49379;DHT22;35254;47.990;-1.608;2023-04-24T06:19:35;16.30;63.50
49379;DHT22;35254;47.990;-1.608;2023-04-24T06:22:00;16.30;63.60
49379;DHT22;35254;47.990;-1.608;2023-04-24T06:24:29;16.30;63.60
49379;DHT22;35254;47.990;-1.608;2023-04-24T06:26:55;16.30;63.60
49379;DHT22;35254;47.990;-1.608;2023-04-24T06:29:22;16.30;63.50
49379;DHT22;35254;47.990;-1.608;2023-04-24T06:31:48;16.30;63.60
49379;DHT22;35254;47.990;-1.608;2023-04-24T06:34:13;16.30;63.50
49379;DHT22;35254;47.990;-1.608;2023-04-24T06:36:39;16.30;63.50
49379;DHT22;35254;47.990;-1.608;2023-04-24T06:39:05;16.30;63.40
49379;DHT22;35254;47.990;-1.608;2023-04-24T06:41:30;16.30;63.40
49379;DHT22;35254;47.990;-1.608;2023-04-24T06:43:56;16.30;63.30
49379;DHT22;35254;47.990;-1.608;2023-04-24T06:46:22;16.20;63.20
49379;DHT22;35254;47.990;-1.608;2023-04-24T06:48:49;16.30;63.20
49379;DHT22;35254;47.990;-1.608;2023-04-24T06:51:15;16.30;63.10
49379;DHT22;35254;47.990;-1.608;2023-04-24T06:53:42;16.30;63.00
49379;DHT22;35254;47.990;-1.608;2023-04-24T06:56:08;16.20;62.90
49379;DHT22;35254;47.990;-1.608;2023-04-24T06:58:34;16.20;62.90
49379;DHT22;35254;47.990;-1.608;2023-04-24T07:00:59;16.20;63.00
49379;DHT22;35254;47.990;-1.608;2023-04-24T07:03:25;16.20;63.00
49379;DHT22;35254;47.990;-1.608;2023-04-24T07:05:51;16.20;63.00
49379;DHT22;35254;47.990;-1.608;2023-04-24T07:08:16;16.20;63.00
49379;DHT22;35254;47.990;-1.608;2023-04-24T07:10:43;16.20;62.90
49379;DHT22;35254;47.990;-1.608;2023-04-24T07:13:10;16.20;63.00
49379;DHT22;35254;47.990;-1.608;2023-04-24T07:15:35;16.20;63.00
49379;DHT22;35254;47.990;-1.608;2023-04-24T07:18:01;16.20;63.00
49379;DHT22;35254;47.990;-1.608;2023-04-24T07:20:26;16.20;63.00
49379;DHT22;35254;47.990;-1.608;2023-04-24T07:22:52;16.20;63.20
49379;DHT22;35254;47.990;-1.608;2023-04-24T07:25:19;16.20;63.40
49379;DHT22;35254;47.990;-1.608;2023-04-24T07:27:45;16.20;63.50
49379;DHT22;35254;47.990;-1.608;2023-04-24T07:30:11;16.20;63.60
49379;DHT22;35254;47.990;-1.608;2023-04-24T07:32:37;16.20;63.60
49379;DHT22;35254;47.990;-1.608;2023-04-24T07:35:02;16.20;63.70
49379;DHT22;35254;47.990;-1.608;2023-04-24T07:37:28;16.20;63.70
49379;DHT22;35254;47.990;-1.608;2023-04-24T07:39:54;16.20;63.80
49379;DHT22;35254;47.990;-1.608;2023-04-24T07:42:20;16.20;63.80
49379;DHT22;35254;47.990;-1.608;2023-04-24T07:44:46;16.20;64.00
49379;DHT22;35254;47.990;-1.608;2023-04-24T07:47:13;16.20;64.10
49379;DHT22;35254;47.990;-1.608;2023-04-24T07:49:41;16.20;64.10
49379;DHT22;35254;47.990;-1.608;2023-04-24T07:52:07;16.20;64.20
49379;DHT22;35254;47.990;-1.608;2023-04-24T07:54:33;16.20;64.20
49379;DHT22;35254;47.990;-1.608;2023-04-24T07:56:58;16.20;64.30
49379;DHT22;35254;47.990;-1.608;2023-04-24T07:59:25;16.20;64.40
49379;DHT22;35254;47.990;-1.608;2023-04-24T08:01:51;16.20;64.40
49379;DHT22;35254;47.990;-1.608;2023-04-24T08:04:16;16.20;64.50
49379;DHT22;35254;47.990;-1.608;2023-04-24T08:06:43;16.20;64.40
49379;DHT22;35254;47.990;-1.608;2023-04-24T08:09:09;16.20;64.50
49379;DHT22;35254;47.990;-1.608;2023-04-24T08:11:35;16.20;64.50
49379;DHT22;35254;47.990;-1.608;2023-04-24T08:14:00;16.20;64.50
49379;DHT22;35254;47.990;-1.608;2023-04-24T08:16:27;16.20;64.50
49379;DHT22;35254;47.990;-1.608;2023-04-24T08:18:53;16.20;64.60
49379;DHT22;35254;47.990;-1.608;2023-04-24T08:21:19;16.20;64.50
49379;DHT22;35254;47.990;-1.608;2023-04-24T08:23:46;16.20;64.70
49379;DHT22;35254;47.990;-1.608;2023-04-24T08:26:12;16.20;64.70
49379;DHT22;35254;47.990;-1.608;2023-04-24T08:28:38;16.20;64.70
49379;DHT22;35254;47.990;-1.608;2023-04-24T08:31:04;16.20;64.70
49379;DHT22;35254;47.990;-1.608;2023-04-24T08:33:30;16.20;64.80
49379;DHT22;35254;47.990;-1.608;2023-04-24T08:36:01;16.20;64.80
49379;DHT22;35254;47.990;-1.608;2023-04-24T08:38:27;16.20;64.90
49379;DHT22;35254;47.990;-1.608;2023-04-24T08:40:53;16.20;64.90
49379;DHT22;35254;47.990;-1.608;2023-04-24T08:43:21;16.20;64.90
49379;DHT22;35254;47.990;-1.608;2023-04-24T08:45:47;16.20;65.00
49379;DHT22;35254;47.990;-1.608;2023-04-24T08:48:13;16.20;65.10
49379;DHT22;35254;47.990;-1.608;2023-04-24T08:50:40;16.20;65.00
49379;DHT22;35254;47.990;-1.608;2023-04-24T08:53:08;16.20;65.10
49379;DHT22;35254;47.990;-1.608;2023-04-24T08:55:34;16.20;65.20
49379;DHT22;35254;47.990;-1.608;2023-04-24T08:58:01;16.20;65.10
49379;DHT22;35254;47.990;-1.608;2023-04-24T09:00:28;16.20;65.10
49379;DHT22;35254;47.990;-1.608;2023-04-24T09:02:54;16.20;65.10
49379;DHT22;35254;47.990;-1.608;2023-04-24T09:05:21;16.20;65.20
49379;DHT22;35254;47.990;-1.608;2023-04-24T09:07:54;16.20;65.10
49379;DHT22;35254;47.990;-1.608;2023-04-24T09:10:21;16.20;65.20
49379;DHT22;35254;47.990;-1.608;2023-04-24T09:12:47;16.20;65.10
49379;DHT22;35254;47.990;-1.608;2023-04-24T09:15:15;16.20;65.10
49379;DHT22;35254;47.990;-1.608;2023-04-24T09:17:41;16.20;65.20
49379;DHT22;35254;47.990;-1.608;2023-04-24T09:20:07;16.20;65.10
49379;DHT22;35254;47.990;-1.608;2023-04-24T09:22:33;16.20;65.10
49379;DHT22;35254;47.990;-1.608;2023-04-24T09:25:06;16.20;65.00
49379;DHT22;35254;47.990;-1.608;2023-04-24T09:27:33;16.20;65.00
49379;DHT22;35254;47.990;-1.608;2023-04-24T09:30:00;16.20;65.00
49379;DHT22;35254;47.990;-1.608;2023-04-24T09:32:26;16.20;65.10
49379;DHT22;35254;47.990;-1.608;2023-04-24T09:35:11;16.20;65.00
49379;DHT22;35254;47.990;-1.608;2023-04-24T09:37:46;16.20;65.00
49379;DHT22;35254;47.990;-1.608;2023-04-24T09:40:18;16.20;65.10
49379;DHT22;35254;47.990;-1.608;2023-04-24T09:42:55;16.20;65.00
49379;DHT22;35254;47.990;-1.608;2023-04-24T09:45:22;16.20;65.00
49379;DHT22;35254;47.990;-1.608;2023-04-24T09:47:52;16.20;64.90
49379;DHT22;35254;47.990;-1.608;2023-04-24T09:50:21;16.20;64.80
49379;DHT22;35254;47.990;-1.608;2023-04-24T09:52:56;16.20;64.80
49379;DHT22;35254;47.990;-1.608;2023-04-24T09:55:22;16.20;64.70
49379;DHT22;35254;47.990;-1.608;2023-04-24T09:57:59;16.20;64.70
49379;DHT22;35254;47.990;-1.608;2023-04-24T10:00:32;16.20;64.60
49379;DHT22;35254;47.990;-1.608;2023-04-24T10:03:00;16.20;64.50
49379;DHT22;35254;47.990;-1.608;2023-04-24T10:05:31;16.20;64.50
49379;DHT22;35254;47.990;-1.608;2023-04-24T10:08:05;16.20;64.50
49379;DHT22;35254;47.990;-1.608;2023-04-24T10:10:33;16.20;64.50
49379;DHT22;35254;47.990;-1.608;2023-04-24T10:12:59;16.20;64.50
49379;DHT22;35254;47.990;-1.608;2023-04-24T10:15:26;16.20;64.50
49379;DHT22;35254;47.990;-1.608;2023-04-24T10:17:52;16.20;64.60
49379;DHT22;35254;47.990;-1.608;2023-04-24T10:20:29;16.20;64.60
49379;DHT22;35254;47.990;-1.608;2023-04-24T10:22:57;16.20;64.60
49379;DHT22;35254;47.990;-1.608;2023-04-24T10:25:25;16.20;64.70
49379;DHT22;35254;47.990;-1.608;2023-04-24T10:27:52;16.20;64.70
49379;DHT22;35254;47.990;-1.608;2023-04-24T10:30:19;16.20;64.70
49379;DHT22;35254;47.990;-1.608;2023-04-24T10:32:44;16.20;64.70
49379;DHT22;35254;47.990;-1.608;2023-04-24T10:35:12;16.20;64.70
49379;DHT22;35254;47.990;-1.608;2023-04-24T10:38:01;16.20;64.70
49379;DHT22;35254;47.990;-1.608;2023-04-24T10:40:35;16.20;64.80
49379;DHT22;35254;47.990;-1.608;2023-04-24T10:43:08;16.20;64.80
49379;DHT22;35254;47.990;-1.608;2023-04-24T10:45:36;16.20;64.90
49379;DHT22;35254;47.990;-1.608;2023-04-24T10:48:06;16.20;64.90
49379;DHT22;35254;47.990;-1.608;2023-04-24T10:53:22;16.20;65.10
49379;DHT22;35254;47.990;-1.608;2023-04-24T10:55:57;16.20;65.10
49379;DHT22;35254;47.990;-1.608;2023-04-24T10:58:23;16.20;65.20
49379;DHT22;35254;47.990;-1.608;2023-04-24T11:00:59;16.20;65.10
49379;DHT22;35254;47.990;-1.608;2023-04-24T11:03:29;16.20;65.00
49379;DHT22;35254;47.990;-1.608;2023-04-24T11:06:03;16.20;65.00
49379;DHT22;35254;47.990;-1.608;2023-04-24T11:08:40;16.10;65.00
49379;DHT22;35254;47.990;-1.608;2023-04-24T11:11:11;16.20;65.10
49379;DHT22;35254;47.990;-1.608;2023-04-24T11:16:32;16.20;65.20
49379;DHT22;35254;47.990;-1.608;2023-04-24T11:27:06;16.10;65.10
49379;DHT22;35254;47.990;-1.608;2023-04-24T11:29:46;16.20;65.10
49379;DHT22;35254;47.990;-1.608;2023-04-24T11:32:16;16.20;65.10
49379;DHT22;35254;47.990;-1.608;2023-04-24T11:34:49;16.20;65.00
49379;DHT22;35254;47.990;-1.608;2023-04-24T11:37:16;16.20;65.10
49379;DHT22;35254;47.990;-1.608;2023-04-24T11:39:42;16.20;65.10
49379;DHT22;35254;47.990;-1.608;2023-04-24T11:42:09;16.20;65.00
49379;DHT22;35254;47.990;-1.608;2023-04-24T11:44:35;16.10;65.00
49379;DHT22;35254;47.990;-1.608;2023-04-24T11:47:06;16.10;65.00
49379;DHT22;35254;47.990;-1.608;2023-04-24T11:49:33;16.20;64.90
49379;DHT22;35254;47.990;-1.608;2023-04-24T11:52:00;16.10;64.90
49379;DHT22;35254;47.990;-1.608;2023-04-24T11:54:27;16.20;64.90
49379;DHT22;35254;47.990;-1.608;2023-04-24T11:56:52;16.20;64.80
49379;DHT22;35254;47.990;-1.608;2023-04-24T11:59:18;16.20;65.00
49379;DHT22;35254;47.990;-1.608;2023-04-24T12:04:11;16.20;64.90
49379;DHT22;35254;47.990;-1.608;2023-04-24T12:06:36;16.10;65.00
49379;DHT22;35254;47.990;-1.608;2023-04-24T12:09:02;16.20;65.00
49379;DHT22;35254;47.990;-1.608;2023-04-24T12:11:28;16.20;65.00
49379;DHT22;35254;47.990;-1.608;2023-04-24T12:13:53;16.20;64.90
49379;DHT22;35254;47.990;-1.608;2023-04-24T12:16:19;16.20;65.00
49379;DHT22;35254;47.990;-1.608;2023-04-24T12:18:45;16.20;65.00
49379;DHT22;35254;47.990;-1.608;2023-04-24T12:21:21;16.10;65.00
49379;DHT22;35254;47.990;-1.608;2023-04-24T12:23:47;16.20;64.90
49379;DHT22;35254;47.990;-1.608;2023-04-24T12:26:17;16.20;64.90
49379;DHT22;35254;47.990;-1.608;2023-04-24T12:28:45;16.20;65.00
49379;DHT22;35254;47.990;-1.608;2023-04-24T12:31:11;16.20;65.00
49379;DHT22;35254;47.990;-1.608;2023-04-24T12:33:36;16.20;65.00
49379;DHT22;35254;47.990;-1.608;2023-04-24T12:36:03;16.20;65.00
49379;DHT22;35254;47.990;-1.608;2023-04-24T12:38:30;16.20;65.00
49379;DHT22;35254;47.990;-1.608;2023-04-24T12:41:11;16.10;65.10
49379;DHT22;35254;47.990;-1.608;2023-04-24T12:43:37;16.20;65.10
49379;DHT22;35254;47.990;-1.608;2023-04-24T12:46:03;16.20;65.00
49379;DHT22;35254;47.990;-1.608;2023-04-24T12:48:30;16.20;65.00
49379;DHT22;35254;47.990;-1.608;2023-04-24T12:50:59;16.20;65.10
49379;DHT22;35254;47.990;-1.608;2023-04-24T12:53:28;16.20;65.00
49379;DHT22;35254;47.990;-1.608;2023-04-24T12:55:55;16.20;65.10
49379;DHT22;35254;47.990;-1.608;2023-04-24T12:58:21;16.20;65.00
49379;DHT22;35254;47.990;-1.608;2023-04-24T13:00:47;16.20;65.10
49379;DHT22;35254;47.990;-1.608;2023-04-24T13:03:14;16.20;65.00
49379;DHT22;35254;47.990;-1.608;2023-04-24T13:05:40;16.20;65.10
49379;DHT22;35254;47.990;-1.608;2023-04-24T13:08:05;16.20;65.00
49379;DHT22;35254;47.990;-1.608;2023-04-24T13:10:31;16.20;65.10
49379;DHT22;35254;47.990;-1.608;2023-04-24T13:12:57;16.20;65.00
49379;DHT22;35254;47.990;-1.608;2023-04-24T13:15:23;16.20;65.00
49379;DHT22;35254;47.990;-1.608;2023-04-24T13:17:50;16.20;65.10
49379;DHT22;35254;47.990;-1.608;2023-04-24T13:20:16;16.20;65.00
49379;DHT22;35254;47.990;-1.608;2023-04-24T13:22:42;16.20;65.00
49379;DHT22;35254;47.990;-1.608;2023-04-24T13:25:08;16.20;64.90
49379;DHT22;35254;47.990;-1.608;2023-04-24T13:27:34;16.20;65.00
49379;DHT22;35254;47.990;-1.608;2023-04-24T13:30:00;16.20;65.00
49379;DHT22;35254;47.990;-1.608;2023-04-24T13:32:26;16.20;65.00
49379;DHT22;35254;47.990;-1.608;2023-04-24T13:34:53;16.20;65.00
49379;DHT22;35254;47.990;-1.608;2023-04-24T13:37:18;16.20;65.00
49379;DHT22;35254;47.990;-1.608;2023-04-24T13:39:44;16.20;64.90
49379;DHT22;35254;47.990;-1.608;2023-04-24T13:42:09;16.20;65.00
49379;DHT22;35254;47.990;-1.608;2023-04-24T13:44:37;16.20;65.00
49379;DHT22;35254;47.990;-1.608;2023-04-24T13:47:03;16.20;65.00
49379;DHT22;35254;47.990;-1.608;2023-04-24T13:49:28;16.20;65.00
49379;DHT22;35254;47.990;-1.608;2023-04-24T13:51:55;16.20;65.00
49379;DHT22;35254;47.990;-1.608;2023-04-24T13:54:21;16.20;64.90
49379;DHT22;35254;47.990;-1.608;2023-04-24T13:56:49;16.20;64.70
49379;DHT22;35254;47.990;-1.608;2023-04-24T13:59:15;16.30;64.90
49379;DHT22;35254;47.990;-1.608;2023-04-24T14:01:40;16.20;65.00
49379;DHT22;35254;47.990;-1.608;2023-04-24T14:04:06;16.30;65.00
49379;DHT22;35254;47.990;-1.608;2023-04-24T14:06:31;16.30;65.00
49379;DHT22;35254;47.990;-1.608;2023-04-24T14:08:57;16.30;65.10
49379;DHT22;35254;47.990;-1.608;2023-04-24T14:11:23;16.30;65.10
49379;DHT22;35254;47.990;-1.608;2023-04-24T14:13:49;16.30;65.20
49379;DHT22;35254;47.990;-1.608;2023-04-24T14:16:15;16.30;65.20
49379;DHT22;35254;47.990;-1.608;2023-04-24T14:18:40;16.40;65.20
49379;DHT22;35254;47.990;-1.608;2023-04-24T14:21:06;16.30;65.20
49379;DHT22;35254;47.990;-1.608;2023-04-24T14:23:32;16.40;65.20
49379;DHT22;35254;47.990;-1.608;2023-04-24T14:25:58;16.30;65.30
49379;DHT22;35254;47.990;-1.608;2023-04-24T14:28:24;16.40;65.30
49379;DHT22;35254;47.990;-1.608;2023-04-24T14:30:51;16.40;65.30
49379;DHT22;35254;47.990;-1.608;2023-04-24T14:33:17;16.30;65.30
49379;DHT22;35254;47.990;-1.608;2023-04-24T14:35:43;16.40;65.40
49379;DHT22;35254;47.990;-1.608;2023-04-24T14:38:09;16.40;65.40
49379;DHT22;35254;47.990;-1.608;2023-04-24T14:40:36;16.30;65.40
49379;DHT22;35254;47.990;-1.608;2023-04-24T14:43:01;16.30;65.40
49379;DHT22;35254;47.990;-1.608;2023-04-24T14:45:27;16.40;65.50
49379;DHT22;35254;47.990;-1.608;2023-04-24T14:47:54;16.40;65.40
49379;DHT22;35254;47.990;-1.608;2023-04-24T14:50:19;16.40;65.40
49379;DHT22;35254;47.990;-1.608;2023-04-24T14:52:45;16.40;65.40
49379;DHT22;35254;47.990;-1.608;2023-04-24T14:55:11;16.40;65.40
49379;DHT22;35254;47.990;-1.608;2023-04-24T14:57:37;16.40;65.40
49379;DHT22;35254;47.990;-1.608;2023-04-24T15:00:04;16.40;65.50
49379;DHT22;35254;47.990;-1.608;2023-04-24T15:02:32;16.40;65.60
49379;DHT22;35254;47.990;-1.608;2023-04-24T15:04:58;16.40;65.60
49379;DHT22;35254;47.990;-1.608;2023-04-24T15:07:24;16.40;65.70
49379;DHT22;35254;47.990;-1.608;2023-04-24T15:09:49;16.40;65.70
49379;DHT22;35254;47.990;-1.608;2023-04-24T15:12:15;16.40;65.70
49379;DHT22;35254;47.990;-1.608;2023-04-24T15:14:41;16.40;65.80
49379;DHT22;35254;47.990;-1.608;2023-04-24T15:17:06;16.40;65.90
49379;DHT22;35254;47.990;-1.608;2023-04-24T15:19:32;16.50;66.00
49379;DHT22;35254;47.990;-1.608;2023-04-24T15:21:57;16.40;66.00
49379;DHT22;35254;47.990;-1.608;2023-04-24T15:24:23;16.50;66.10
49379;DHT22;35254;47.990;-1.608;2023-04-24T15:26:49;16.40;66.10
49379;DHT22;35254;47.990;-1.608;2023-04-24T15:29:15;16.40;66.20